地図

経路データ

SID SEASON NUMBER BASIN SUBBASIN NAME ISO_TIME NATURE LAT LON WMO_WIND WMO_PRES WMO_AGENCY TRACK_TYPE DIST2LAND LANDFALL IFLAG USA_AGENCY USA_ATCF_ID USA_LAT USA_LON USA_RECORD USA_STATUS USA_WIND USA_PRES USA_SSHS USA_R34_NE USA_R34_SE USA_R34_SW USA_R34_NW USA_R50_NE USA_R50_SE USA_R50_SW USA_R50_NW USA_R64_NE USA_R64_SE USA_R64_SW USA_R64_NW USA_POCI USA_ROCI USA_RMW USA_EYE TOKYO_LAT TOKYO_LON TOKYO_GRADE TOKYO_WIND TOKYO_PRES TOKYO_R50_DIR TOKYO_R50_LONG TOKYO_R50_SHORT TOKYO_R30_DIR TOKYO_R30_LONG TOKYO_R30_SHORT TOKYO_LAND CMA_LAT CMA_LON CMA_CAT CMA_WIND CMA_PRES HKO_LAT HKO_LON HKO_CAT HKO_WIND HKO_PRES NEWDELHI_LAT NEWDELHI_LON NEWDELHI_GRADE NEWDELHI_WIND NEWDELHI_PRES NEWDELHI_CI NEWDELHI_DP NEWDELHI_POCI REUNION_LAT REUNION_LON REUNION_TYPE REUNION_WIND REUNION_PRES REUNION_TNUM REUNION_CI REUNION_RMW REUNION_R34_NE REUNION_R34_SE REUNION_R34_SW REUNION_R34_NW REUNION_R50_NE REUNION_R50_SE REUNION_R50_SW REUNION_R50_NW REUNION_R64_NE REUNION_R64_SE REUNION_R64_SW REUNION_R64_NW BOM_LAT BOM_LON BOM_TYPE BOM_WIND BOM_PRES BOM_TNUM BOM_CI BOM_RMW BOM_R34_NE BOM_R34_SE BOM_R34_SW BOM_R34_NW BOM_R50_NE BOM_R50_SE BOM_R50_SW BOM_R50_NW BOM_R64_NE BOM_R64_SE BOM_R64_SW BOM_R64_NW BOM_ROCI BOM_POCI BOM_EYE BOM_POS_METHOD BOM_PRES_METHOD NADI_LAT NADI_LON NADI_CAT NADI_WIND NADI_PRES WELLINGTON_LAT WELLINGTON_LON WELLINGTON_WIND WELLINGTON_PRES DS824_LAT DS824_LON DS824_STAGE DS824_WIND DS824_PRES TD9636_LAT TD9636_LON TD9636_STAGE TD9636_WIND TD9636_PRES TD9635_LAT TD9635_LON TD9635_WIND TD9635_PRES TD9635_ROCI NEUMANN_LAT NEUMANN_LON NEUMANN_CLASS NEUMANN_WIND NEUMANN_PRES MLC_LAT MLC_LON MLC_CLASS MLC_WIND MLC_PRES USA_GUST BOM_GUST BOM_GUST_PER REUNION_GUST REUNION_GUST_PER USA_SEAHGT USA_SEARAD_NE USA_SEARAD_SE USA_SEARAD_SW USA_SEARAD_NW STORM_SPEED STORM_DIR
1898183N21089 1898 18 NI BB NOT_NAMED 1898-07-02 00:00:00 TS 21.3000 88.7000 main 39 11 _________O____ -1 21.3000 88.7000 TC 30 6 308
1898183N21089 1898 18 NI BB NOT_NAMED 1898-07-02 03:00:00 TS 21.4735 88.4635 main 11 0 _________PO___ -1 21.5602 88.3453 TC 30 21.3000 88.7000 1 6 308
1898183N21089 1898 18 NI BB NOT_NAMED 1898-07-02 06:00:00 TS 21.6931 88.1546 main 0 0 _________OP___ -1 21.8000 88.0000 TC 30 21.5328 88.3864 1 7 306
1898183N21089 1898 18 NI BB NOT_NAMED 1898-07-02 09:00:00 TS 21.9023 87.8332 main 0 0 _________PP___ -1 22.0073 87.6648 TC 30 21.7623 88.0579 1 7 303
1898183N21089 1898 18 NI BB NOT_NAMED 1898-07-02 12:00:00 TS 22.0929 87.5002 main 0 0 _________OP___ -1 22.2000 87.3000 TC 30 21.9857 87.7004 1 8 300
1898183N21089 1898 18 NI BB NOT_NAMED 1898-07-02 15:00:00 TS 22.3037 87.0825 main 0 0 _________PO___ -1 22.4075 86.8650 TC 30 22.2000 87.3000 1 9 297
1898183N21089 1898 18 NI BB NOT_NAMED 1898-07-02 18:00:00 TS 22.5010 86.6252 main 0 0 _________OP___ -1 22.6000 86.4000 TC 30 22.4020 86.8505 1 9 293
1898183N21089 1898 18 NI BB NOT_NAMED 1898-07-02 21:00:00 TS 22.6766 86.1489 main 0 0 _________PP___ -1 22.7651 85.9200 TC 30 22.5882 86.3778 1 9 291
1898183N21089 1898 18 NI BB NOT_NAMED 1898-07-03 00:00:00 TS 22.8276 85.7081 main 0 0 _________OP___ -1 22.9000 85.5000 TC 30 22.7552 85.9162 1 8 291
1898183N21089 1898 18 NI BB NOT_NAMED 1898-07-03 03:00:00 TS 22.9536 85.3637 main 0 0 _________PO___ -1 23.0072 85.2273 TC 30 22.9000 85.5000 1 6 292
1898183N21089 1898 18 NI BB NOT_NAMED 1898-07-03 06:00:00 TS 23.0624 85.0911 main 0 0 _________OP___ -1 23.1000 85.0000 TC 30 23.0248 85.1822 1 6 292
1898183N21089 1898 18 NI BB NOT_NAMED 1898-07-03 09:00:00 TS 23.1645 84.8096 main 0 0 _________PP___ -1 23.2000 84.7075 TC 30 23.1290 84.9118 1 6 291
1898183N21089 1898 18 NI BB NOT_NAMED 1898-07-03 12:00:00 TS 23.2593 84.5302 main 0 0 _________OP___ -1 23.3000 84.4000 TC 30 23.2187 84.6605 1 5 290
1898183N21089 1898 18 NI BB NOT_NAMED 1898-07-03 15:00:00 TS 23.3537 84.2538 main 0 0 _________PO___ -1 23.4074 84.1075 TC 30 23.3000 84.4000 1 6 289
1898183N21089 1898 18 NI BB NOT_NAMED 1898-07-03 18:00:00 TS 23.4431 83.9447 main 0 0 _________OP___ -1 23.5000 83.8000 TC 30 23.3862 84.0893 1 6 285
1898183N21089 1898 18 NI BB NOT_NAMED 1898-07-03 21:00:00 TS 23.5112 83.6074 main 0 0 _________PP___ -1 23.5575 83.4499 TC 30 23.4649 83.7649 1 6 281
1898183N21089 1898 18 NI BB NOT_NAMED 1898-07-04 00:00:00 TS 23.5681 83.2665 main 0 0 _________OP___ -1 23.6000 83.1000 TC 30 23.5362 83.4331 1 6 281
1898183N21089 1898 18 NI BB NOT_NAMED 1898-07-04 03:00:00 TS 23.6249 82.9500 main 0 0 _________PO___ -1 23.6499 82.8000 TC 30 23.6000 83.1000 1 6 281
1898183N21089 1898 18 NI BB NOT_NAMED 1898-07-04 06:00:00 TS 23.6785 82.6394 main 0 0 _________OP___ -1 23.7000 82.5000 TC 30 23.6569 82.7789 1 6 280
1898183N21089 1898 18 NI BB NOT_NAMED 1898-07-04 09:00:00 TS 23.7285 82.3074 main 0 0 _________PP___ -1 23.7500 82.1575 TC 30 23.7071 82.4573 1 6 279
1898183N21089 1898 18 NI BB NOT_NAMED 1898-07-04 12:00:00 TS 23.7769 81.9660 main 0 0 _________OP___ -1 23.8000 81.8000 TC 30 23.7538 82.1320 1 6 279
1898183N21089 1898 18 NI BB NOT_NAMED 1898-07-04 15:00:00 TS 23.8250 81.6250 main 0 0 _________PO___ -1 23.8499 81.4500 TC 30 23.8000 81.8000 1 6 279
1898183N21089 1898 18 NI BB NOT_NAMED 1898-07-04 18:00:00 TS 23.8770 81.2766 main 0 0 _________OP___ -1 23.9000 81.1000 TC 30 23.8540 81.4531 1 7 279
1898183N21089 1898 18 NI BB NOT_NAMED 1898-07-04 21:00:00 TS 23.9287 80.9213 main 0 0 _________PP___ -1 23.9500 80.7425 TC 30 23.9074 81.1000 1 7 279
1898183N21089 1898 18 NI BB NOT_NAMED 1898-07-05 00:00:00 TS 23.9785 80.5735 main 0 0 _________OP___ -1 24.0000 80.4000 TC 30 23.9571 80.7469 1 6 279
1898183N21089 1898 18 NI BB NOT_NAMED 1898-07-05 03:00:00 TS 24.0287 80.2500 main 0 0 _________PO___ -1 24.0573 80.1000 TC 30 24.0000 80.4000 1 6 278
1898183N21089 1898 18 NI BB NOT_NAMED 1898-07-05 06:00:00 TS 24.0638 79.9439 main 0 0 _________OP___ -1 24.1000 79.8000 TC 30 24.0275 80.0879 1 6 275
1898183N21089 1898 18 NI BB NOT_NAMED 1898-07-05 09:00:00 TS 24.0745 79.6260 main 0 0 _________PP___ -1 24.0999 79.4724 TC 30 24.0491 79.7796 1 6 272
1898183N21089 1898 18 NI BB NOT_NAMED 1898-07-05 12:00:00 TS 24.0856 79.2783 main 0 0 _________OP___ -1 24.1000 79.1000 TC 30 24.0712 79.4566 1 7 274
1898183N21089 1898 18 NI BB NOT_NAMED 1898-07-05 15:00:00 TS 24.1212 78.8825 main 0 0 _________PO___ -1 24.1425 78.6650 TC 30 24.1000 79.1000 1 7 276
1898183N21089 1898 18 NI BB NOT_NAMED 1898-07-05 18:00:00 TS 24.1657 78.4836 main 0 0 _________OP___ -1 24.2000 78.2000 TC 30 24.1400 78.6963 1 8 277
1898183N21089 1898 18 NI BB NOT_NAMED 1898-07-05 21:00:00 TS 24.2146 78.0499 main 0 0 _________PP___ -1 24.2527 77.7450 TC 30 24.1892 78.2531 1 8 277
1898183N21089 1898 18 NI AS NOT_NAMED 1898-07-06 00:00:00 TS 24.2624 77.6222 main 0 0 _________OP___ -1 24.3000 77.3000 TC 30 24.2437 77.7833 1 7 277
1898183N21089 1898 18 NI AS NOT_NAMED 1898-07-06 03:00:00 NR 24.3000 77.3000 main 0 __________O___ -1 TC 24.3000 77.3000 1 6 277

IBTrACS Databaseについて

本データベースは、米国NOAAが公開する1842年以降の世界の熱帯低気圧のベストトラックデータアーカイブInternational Best Track Archive for Climate Stewardship (IBTrACS)を、ウェブで閲覧しやすい形式に変換したものです。

最終更新日:2021-10-08